Time;durP1;ratioP1;P1;durP2;ratioP2;P2;SDS_P1;SDS_P2;PMS_P1;PMS_P2;Temp;Humidity;BMP_temperature;BMP_pressure;BME280_temperature;BME280_humidity;BME280_pressure;Samples;Min_cycle;Max_cycle;Signal;HPM_P1;HPM_P2
2021/12/02 00:03:24;;;;;;;;;;;4.50;99.90;;;;;;8424896;28;19928;-72
2021/12/02 00:07:26;;;;;;;;;;;4.50;99.90;;;;;;8418561;28;20349;-71
2021/12/02 00:11:27;;;;;;;;;;;4.50;99.90;;;;;;8431801;28;19922;-71
2021/12/02 00:15:35;;;;;;;;;;;4.60;99.90;;;;;;8430232;28;19966;-72
2021/12/02 00:24:14;;;;;;;;;;;4.60;99.90;;;;;;8389699;28;19952;-72
2021/12/02 00:28:16;;;;;;;;;;;4.60;99.90;;;;;;8428050;28;20359;-71
2021/12/02 00:32:18;;;;;;;;;;;4.50;99.90;;;;;;8422990;28;20003;-71
2021/12/02 00:36:21;;;;;;;;;;;4.40;99.90;;;;;;8467907;27;20518;-71
2021/12/02 00:40:22;;;;;;;;;;;4.40;99.90;;;;;;8429000;28;19963;-72
2021/12/02 00:44:24;;;;;;;;;;;4.30;99.90;;;;;;8427966;28;19927;-72
2021/12/02 00:48:26;;;;;;;;;;;4.20;99.90;;;;;;8457863;27;19920;-72
2021/12/02 00:52:28;;;;;;;;;;;4.20;99.90;;;;;;8426929;28;19920;-72
2021/12/02 00:56:29;;;;;;;;;;;4.10;99.90;;;;;;8424013;28;20267;-72
2021/12/02 01:00:31;;;;;;;;;;;4.00;99.90;;;;;;8416896;28;19952;-72
2021/12/02 01:04:33;;;;;;;;;;;4.00;99.90;;;;;;8423154;28;19920;-71
2021/12/02 01:08:36;;;;;;;;;;;3.90;99.90;;;;;;8419870;28;19958;-71
2021/12/02 01:12:37;;;;;;;;;;;3.90;99.90;;;;;;8427868;28;19935;-71
2021/12/02 01:16:39;;;;;;;;;;;3.80;99.90;;;;;;8435680;28;19942;-72
2021/12/02 01:20:42;;;;;;;;;;;3.90;99.90;;;;;;8431468;28;19984;-72
2021/12/02 01:24:48;;;;;;;;;;;3.90;99.90;;;;;;8430719;28;19935;-72
2021/12/02 01:28:49;;;;;;;;;;;4.00;99.90;;;;;;8428071;28;19920;-71
2021/12/02 01:32:52;;;;;;;;;;;4.00;99.90;;;;;;8436180;28;20299;-72
2021/12/02 01:36:54;;;;;;;;;;;4.00;99.90;;;;;;8424461;28;19920;-72
2021/12/02 01:40:56;;;;;;;;;;;4.00;99.90;;;;;;8427382;28;20364;-71
2021/12/02 01:44:58;;;;;;;;;;;3.90;99.90;;;;;;8434480;28;19959;-72
2021/12/02 01:49:05;;;;;;;;;;;3.90;99.90;;;;;;8433602;28;19930;-72
2021/12/02 01:53:07;;;;;;;;;;;3.90;99.90;;;;;;8431024;28;19986;-72
2021/12/02 01:57:16;;;;;;;;;;;3.90;99.90;;;;;;8430748;28;19927;-72
2021/12/02 02:01:22;;;;;;;;;;;3.90;99.90;;;;;;8424424;28;20355;-72
2021/12/02 02:05:24;;;;;;;;;;;4.00;99.90;;;;;;8431187;28;19977;-71
2021/12/02 02:09:30;;;;;;;;;;;4.00;99.90;;;;;;8432190;28;19920;-72
2021/12/02 02:13:31;;;;;;;;;;;4.00;99.90;;;;;;8431941;28;19924;-72
2021/12/02 02:17:58;;;;;;;;;;;4.00;99.90;;;;;;8429519;28;19928;-72
2021/12/02 02:21:56;;;;;;;;;;;4.00;99.90;;;;;;8424677;28;19927;-71
2021/12/02 02:25:58;;;;;;;;;;;4.10;99.90;;;;;;8429747;28;19966;-72
2021/12/02 02:29:59;;;;;;;;;;;4.10;99.90;;;;;;8428256;28;19935;-72
2021/12/02 02:34:01;;;;;;;;;;;4.10;99.90;;;;;;8429973;28;20038;-72
2021/12/02 02:38:04;;;;;;;;;;;4.10;99.90;;;;;;8429230;28;19920;-72
2021/12/02 02:42:08;;;;;;;;;;;4.10;99.90;;;;;;8442220;27;19920;-71
2021/12/02 02:46:19;;;;;;;;;;;4.10;99.90;;;;;;8428058;28;20399;-71
2021/12/02 02:50:23;;;;;;;;;;;4.10;99.90;;;;;;8440177;28;19920;-72
2021/12/02 02:54:25;;;;;;;;;;;4.10;99.90;;;;;;8431374;28;20376;-71
2021/12/02 02:58:34;;;;;;;;;;;4.00;99.90;;;;;;8425195;28;19920;-71
2021/12/02 03:06:58;;;;;;;;;;;3.90;99.90;;;;;;8430202;28;19920;-71
2021/12/02 03:11:00;;;;;;;;;;;3.80;99.90;;;;;;8425570;28;19963;-72
2021/12/02 03:19:03;;;;;;;;;;;3.70;99.90;;;;;;8428998;28;19928;-71
2021/12/02 03:23:05;;;;;;;;;;;3.70;99.90;;;;;;8431134;28;20313;-71
2021/12/02 03:27:07;;;;;;;;;;;3.80;99.90;;;;;;8434977;28;19962;-72
2021/12/02 03:31:09;;;;;;;;;;;3.80;99.90;;;;;;8435107;28;19959;-71
2021/12/02 03:35:11;;;;;;;;;;;3.90;99.90;;;;;;8428391;28;19920;-71
2021/12/02 03:39:12;;;;;;;;;;;3.90;99.90;;;;;;8387199;28;19925;-72
2021/12/02 03:43:14;;;;;;;;;;;4.00;99.90;;;;;;8357478;28;20009;-72
2021/12/02 03:47:22;;;;;;;;;;;4.00;99.90;;;;;;8358171;28;19925;-71
2021/12/02 03:51:24;;;;;;;;;;;4.00;99.90;;;;;;8355651;28;19928;-71
2021/12/02 03:55:26;;;;;;;;;;;4.00;99.90;;;;;;8355273;28;19971;-72
2021/12/02 03:59:28;;;;;;;;;;;4.00;99.90;;;;;;8352572;28;20292;-72
2021/12/02 04:03:29;;;;;;;;;;;3.90;99.90;;;;;;8346823;28;20349;-72
2021/12/02 04:07:31;;;;;;;;;;;3.90;99.90;;;;;;8336847;28;20475;-71
2021/12/02 04:11:48;;;;;;;;;;;3.90;99.90;;;;;;8352426;28;19921;-71
2021/12/02 04:15:54;;;;;;;;;;;3.90;99.90;;;;;;8384374;28;19964;-72
2021/12/02 04:19:56;;;;;;;;;;;3.90;99.90;;;;;;8355681;28;19929;-72
2021/12/02 04:23:57;;;;;;;;;;;3.90;99.90;;;;;;8350469;28;20329;-72
2021/12/02 04:27:59;;;;;;;;;;;3.80;99.90;;;;;;8342258;28;19983;-72
2021/12/02 04:32:01;;;;;;;;;;;3.80;99.90;;;;;;8338463;28;19964;-72
2021/12/02 04:36:03;;;;;;;;;;;3.80;99.90;;;;;;8342776;28;20356;-72
2021/12/02 04:40:05;;;;;;;;;;;3.70;99.90;;;;;;8416482;28;19923;-72
2021/12/02 04:44:07;;;;;;;;;;;3.50;99.90;;;;;;8422635;28;19927;-71
2021/12/02 04:48:09;;;;;;;;;;;3.50;99.90;;;;;;8424505;28;19962;-72
2021/12/02 04:52:10;;;;;;;;;;;3.50;99.90;;;;;;8448123;27;19920;-71
2021/12/02 04:56:12;;;;;;;;;;;3.50;99.90;;;;;;8421645;28;19990;-71
2021/12/02 05:00:15;;;;;;;;;;;3.40;99.90;;;;;;8426677;28;19924;-72
2021/12/02 05:04:16;;;;;;;;;;;3.40;99.90;;;;;;8424197;28;19935;-72
2021/12/02 05:08:18;;;;;;;;;;;3.40;99.90;;;;;;8419817;28;19931;-72
2021/12/02 05:12:21;;;;;;;;;;;3.40;99.90;;;;;;8421204;28;19926;-72
2021/12/02 05:16:22;;;;;;;;;;;3.40;99.90;;;;;;8417658;28;19935;-72
2021/12/02 05:20:24;;;;;;;;;;;3.40;99.90;;;;;;8455095;27;19965;-72
2021/12/02 05:24:25;;;;;;;;;;;3.40;99.90;;;;;;8452248;28;19958;-72
2021/12/02 05:28:27;;;;;;;;;;;3.30;99.90;;;;;;8425298;28;19926;-72
2021/12/02 05:32:30;;;;;;;;;;;3.30;99.90;;;;;;8418038;28;19920;-72
2021/12/02 05:36:32;;;;;;;;;;;3.30;99.90;;;;;;8421582;28;19927;-72
2021/12/02 05:40:33;;;;;;;;;;;3.20;99.90;;;;;;8416169;28;19975;-72
2021/12/02 05:44:35;;;;;;;;;;;3.20;99.90;;;;;;8416232;28;20008;-72
2021/12/02 05:48:37;;;;;;;;;;;3.20;99.90;;;;;;8410115;28;19986;-72
2021/12/02 05:52:38;;;;;;;;;;;3.20;99.90;;;;;;8417314;28;19927;-72
2021/12/02 05:56:41;;;;;;;;;;;3.30;99.90;;;;;;8428034;28;20004;-72
2021/12/02 06:00:43;;;;;;;;;;;3.30;99.90;;;;;;8411688;28;19920;-72
2021/12/02 06:04:49;;;;;;;;;;;3.30;99.90;;;;;;8410558;28;20272;-72
2021/12/02 06:08:51;;;;;;;;;;;3.30;99.90;;;;;;8427872;28;19935;-72
2021/12/02 06:12:53;;;;;;;;;;;3.40;99.90;;;;;;8436537;27;19998;-72
2021/12/02 06:16:55;;;;;;;;;;;3.40;99.90;;;;;;8420512;28;19920;-72
2021/12/02 06:20:56;;;;;;;;;;;3.40;99.90;;;;;;8416156;28;20428;-72
2021/12/02 06:29:15;;;;;;;;;;;3.30;99.90;;;;;;8422971;28;19959;-72
2021/12/02 06:33:17;;;;;;;;;;;3.20;99.90;;;;;;8425576;28;20622;-72
2021/12/02 06:37:19;;;;;;;;;;;3.20;99.90;;;;;;8448762;27;19920;-72
2021/12/02 06:41:20;;;;;;;;;;;3.20;99.90;;;;;;8421485;28;20406;-72
2021/12/02 06:45:22;;;;;;;;;;;3.20;99.90;;;;;;8426685;28;19970;-72
2021/12/02 06:49:23;;;;;;;;;;;3.20;99.90;;;;;;8441459;28;19927;-72
2021/12/02 06:53:25;;;;;;;;;;;3.10;99.90;;;;;;8417283;28;19932;-72
2021/12/02 06:57:27;;;;;;;;;;;3.10;99.90;;;;;;8419145;28;19935;-72
2021/12/02 07:01:28;;;;;;;;;;;3.00;99.90;;;;;;8426872;28;20348;-72
2021/12/02 07:05:32;;;;;;;;;;;3.00;99.90;;;;;;8429963;28;19927;-72
2021/12/02 07:09:34;;;;;;;;;;;3.00;99.90;;;;;;8425413;28;20268;-72
2021/12/02 07:13:37;;;;;;;;;;;2.90;99.90;;;;;;8421997;28;19920;-72
2021/12/02 07:17:39;;;;;;;;;;;2.90;99.90;;;;;;8429810;28;19920;-72
2021/12/02 07:21:41;;;;;;;;;;;2.90;99.90;;;;;;8416495;28;19920;-72
2021/12/02 07:25:42;;;;;;;;;;;2.90;99.90;;;;;;8425185;28;19974;-72
2021/12/02 07:29:44;;;;;;;;;;;2.90;99.90;;;;;;8419152;28;19928;-72
2021/12/02 07:33:49;;;;;;;;;;;3.00;99.90;;;;;;8419574;28;19928;-72
2021/12/02 07:37:51;;;;;;;;;;;3.00;99.90;;;;;;8423814;28;20062;-72
2021/12/02 07:41:53;;;;;;;;;;;3.00;99.90;;;;;;8421179;28;20361;-72
2021/12/02 07:45:57;;;;;;;;;;;2.80;99.90;;;;;;8423720;28;19923;-72
2021/12/02 07:49:59;;;;;;;;;;;2.80;99.90;;;;;;8408186;28;19924;-72
2021/12/02 07:54:03;;;;;;;;;;;2.70;99.90;;;;;;8429326;28;19930;-72
2021/12/02 07:58:06;;;;;;;;;;;2.70;99.90;;;;;;8422484;28;19924;-72
2021/12/02 08:02:14;;;;;;;;;;;2.70;99.90;;;;;;8431619;28;20407;-72
2021/12/02 08:06:16;;;;;;;;;;;2.70;99.90;;;;;;8425898;28;19928;-71
2021/12/02 08:10:18;;;;;;;;;;;2.80;99.90;;;;;;8420525;28;19927;-72
2021/12/02 08:14:20;;;;;;;;;;;2.80;99.90;;;;;;8418083;28;19957;-72
2021/12/02 08:18:21;;;;;;;;;;;2.90;99.90;;;;;;8415093;28;19963;-72
2021/12/02 08:22:23;;;;;;;;;;;2.90;99.90;;;;;;8423665;28;19928;-72
2021/12/02 08:26:24;;;;;;;;;;;3.00;99.90;;;;;;8421389;28;19919;-72
2021/12/02 08:30:27;;;;;;;;;;;3.00;99.90;;;;;;8412822;28;19920;-72
2021/12/02 08:34:29;;;;;;;;;;;3.00;99.90;;;;;;8439366;28;20360;-72
2021/12/02 08:38:32;;;;;;;;;;;3.10;99.90;;;;;;8425783;28;20362;-72
2021/12/02 08:42:34;;;;;;;;;;;3.10;99.90;;;;;;8425804;28;20386;-72
2021/12/02 08:46:35;;;;;;;;;;;3.10;99.90;;;;;;8423791;28;19924;-72
2021/12/02 08:50:37;;;;;;;;;;;3.10;99.90;;;;;;8423110;28;19920;-72
2021/12/02 08:54:39;;;;;;;;;;;3.10;99.90;;;;;;8421644;28;19943;-72
2021/12/02 08:58:40;;;;;;;;;;;3.10;99.90;;;;;;8409001;28;20386;-72
2021/12/02 09:02:42;;;;;;;;;;;3.20;99.90;;;;;;8424732;28;19931;-72
2021/12/02 09:06:44;;;;;;;0.98;0.43;;;3.30;99.90;;;;;;8434468;28;19928;-72
2021/12/02 09:10:46;;;;;;;4.65;1.10;;;3.40;99.90;;;;;;8421869;28;20058;-72
2021/12/02 09:14:48;;;;;;;2.05;0.60;;;3.50;99.90;;;;;;8434766;28;20388;-72
2021/12/02 09:18:50;;;;;;;2.55;1.67;;;3.60;99.90;;;;;;8418231;28;20068;-72
2021/12/02 09:22:52;;;;;;;2.47;0.80;;;3.80;99.90;;;;;;8421898;28;20407;-72
2021/12/02 09:26:54;;;;;;;;;;;4.00;99.90;;;;;;8417181;28;19924;-72
2021/12/02 09:30:56;;;;;;;;;;;4.20;99.90;;;;;;8416304;28;19963;-72
2021/12/02 09:34:57;;;;;;;;;;;4.40;99.90;;;;;;8423740;28;19966;-72
2021/12/02 09:38:59;;;;;;;;;;;4.70;99.90;;;;;;8431034;28;19996;-72
2021/12/02 09:43:01;;;;;;;;;;;4.90;99.90;;;;;;8446398;28;19959;-72
2021/12/02 09:47:03;;;;;;;;;;;5.00;99.90;;;;;;8433010;28;19944;-72
2021/12/02 09:51:09;;;;;;;;;;;5.00;99.90;;;;;;8429786;28;19923;-72
2021/12/02 09:55:43;;;;;;;;;;;5.10;99.90;;;;;;8432712;28;19964;-72
2021/12/02 10:03:51;;;;;;;;;;;5.00;99.90;;;;;;8431575;28;20291;-72
2021/12/02 10:07:54;;;;;;;;;;;4.90;99.90;;;;;;8421052;28;19979;-72
2021/12/02 10:12:03;;;;;;;;;;;4.80;99.90;;;;;;8427339;28;19920;-72
2021/12/02 10:16:06;;;;;;;;;;;4.70;99.90;;;;;;8421843;28;20006;-72
2021/12/02 10:20:20;;;;;;;;;;;4.60;99.90;;;;;;8429034;28;19927;-72
2021/12/02 10:24:27;;;;;;;;;;;4.50;99.90;;;;;;8420629;28;19938;-72
2021/12/02 10:28:30;;;;;;;;;;;4.40;99.90;;;;;;8424199;28;19927;-72
2021/12/02 10:32:34;;;;;;;;;;;4.50;99.90;;;;;;8426923;28;19927;-72
2021/12/02 10:36:39;;;;;;;1.33;0.70;;;4.80;99.90;;;;;;8429123;28;22434;-72
2021/12/02 10:40:55;;;;;;;1.20;0.65;;;5.20;99.90;;;;;;8433032;28;20040;-72
2021/12/02 10:45:02;;;;;;;;;;;5.40;99.90;;;;;;8431355;28;20087;-72
2021/12/02 10:49:05;;;;;;;;;;;5.20;99.90;;;;;;8422240;28;20423;-73
2021/12/02 10:53:06;;;;;;;;;;;4.90;99.90;;;;;;8429040;28;19924;-72
2021/12/02 10:57:08;;;;;;;;;;;4.50;99.90;;;;;;8421100;28;19928;-72
2021/12/02 11:01:29;;;;;;;;;;;4.30;99.90;;;;;;8427227;28;20375;-72
2021/12/02 11:05:32;;;;;;;;;;;4.20;99.90;;;;;;8426794;28;19928;-72
2021/12/02 11:09:34;;;;;;;;;;;4.10;99.90;;;;;;8425079;28;19951;-72
2021/12/02 11:13:48;;;;;;;1.17;0.65;;;3.90;99.90;;;;;;8431523;28;19928;-70
2021/12/02 11:17:51;;;;;;;;;;;3.80;99.90;;;;;;8432867;28;20055;-70
2021/12/02 11:22:02;;;;;;;;;;;3.70;99.90;;;;;;8420356;28;19928;-70
2021/12/02 11:26:07;;;;;;;;;;;3.70;99.90;;;;;;8427254;28;19943;-70
2021/12/02 11:30:10;;;;;;;;;;;3.80;99.90;;;;;;8427965;28;19936;-70
2021/12/02 11:34:14;;;;;;;;;;;3.90;99.90;;;;;;8439791;28;20200;-69
2021/12/02 11:38:19;;;;;;;;;;;3.90;99.90;;;;;;8424965;28;19967;-70
2021/12/02 11:42:22;;;;;;;;;;;4.00;99.90;;;;;;8434196;27;19932;-69
2021/12/02 11:46:23;;;;;;;;;;;4.00;99.90;;;;;;8460527;27;19935;-70
2021/12/02 11:50:27;;;;;;;;;;;4.10;99.90;;;;;;8428172;28;19928;-70
2021/12/02 11:54:28;;;;;;;;;;;4.10;99.90;;;;;;8425598;28;20008;-70
2021/12/02 11:58:30;;;;;;;;;;;4.20;99.90;;;;;;8418405;28;19956;-70
2021/12/02 12:02:32;;;;;;;;;;;4.40;99.90;;;;;;8426595;28;19967;-70
2021/12/02 12:06:34;;;;;;;;;;;4.80;99.90;;;;;;8429694;28;19977;-70
2021/12/02 12:10:38;;;;;;;;;;;5.30;99.90;;;;;;8421019;28;19929;-70
2021/12/02 12:14:41;;;;;;;;;;;5.60;99.90;;;;;;8454499;27;19928;-70
2021/12/02 12:18:43;;;;;;;;;;;6.30;99.90;;;;;;8412137;28;19920;-70
2021/12/02 12:22:44;;;;;;;;;;;7.00;99.90;;;;;;8422184;28;19924;-70
2021/12/02 12:26:47;;;;;;;;;;;7.50;99.90;;;;;;8418730;28;20394;-70
2021/12/02 12:31:03;;;;;;;;;;;8.00;99.90;;;;;;8419423;28;19920;-70
2021/12/02 12:35:12;;;;;;;;;;;8.50;99.90;;;;;;8419858;28;19928;-70
2021/12/02 12:39:18;;;;;;;;;;;8.70;99.90;;;;;;8417645;28;19969;-70
2021/12/02 12:43:21;;;;;;;;;;;9.40;99.90;;;;;;8418218;28;20375;-70
2021/12/02 12:47:42;;;;;;;;;;;10.20;99.90;;;;;;8428874;28;19989;-70
2021/12/02 12:51:48;;;;;;;;;;;10.50;99.90;;;;;;8402585;28;19939;-70
2021/12/02 12:55:53;;;;;;;;;;;10.70;99.90;;;;;;8384260;28;20039;-70
2021/12/02 12:59:55;;;;;;;;;;;11.00;99.90;;;;;;8403207;28;19976;-70
2021/12/02 13:04:11;;;;;;;;;;;11.40;99.90;;;;;;8390566;28;19927;-70
2021/12/02 13:08:17;;;;;;;;;;;11.90;99.90;;;;;;8396984;28;20008;-70
2021/12/02 13:12:21;;;;;;;;;;;12.10;99.90;;;;;;8402504;28;19924;-70
2021/12/02 13:16:22;;;;;;;;;;;11.50;99.90;;;;;;8397650;28;19932;-70
2021/12/02 13:20:29;;;;;;;;;;;10.90;99.90;;;;;;8404193;28;19920;-70
2021/12/02 13:24:33;;;;;;;;;;;10.30;99.90;;;;;;8403423;28;20249;-70
2021/12/02 13:28:38;;;;;;;;;;;9.90;99.90;;;;;;8403854;28;19952;-70
2021/12/02 13:32:46;;;;;;;;;;;9.50;99.90;;;;;;8403532;28;19924;-70
2021/12/02 13:37:05;;;;;;;;;;;9.20;99.90;;;;;;8408060;28;19920;-70
2021/12/02 13:41:18;;;;;;;;;;;8.90;99.90;;;;;;8402762;28;19924;-70
2021/12/02 13:45:21;;;;;;;;;;;8.60;99.90;;;;;;8400764;28;19963;-70
2021/12/02 13:49:27;;;;;;;;;;;8.40;99.90;;;;;;8399015;28;20348;-70
2021/12/02 13:53:29;;;;;;;;;;;8.10;99.90;;;;;;8399928;28;19952;-70
2021/12/02 13:57:40;;;;;;;;;;;7.90;99.90;;;;;;8404960;28;19960;-70
2021/12/02 14:01:48;;;;;;;;;;;7.80;99.90;;;;;;8402204;28;19955;-70
2021/12/02 14:05:52;;;;;;;;;;;7.60;99.90;;;;;;8399631;28;19984;-70
2021/12/02 14:09:55;;;;;;;;;;;7.60;99.90;;;;;;8403838;28;20390;-70
2021/12/02 14:13:57;;;;;;;;;;;7.60;99.90;;;;;;8399163;28;20291;-70
2021/12/02 14:18:21;;;;;;;;;;;7.50;99.90;;;;;;8402020;28;19921;-70
2021/12/02 14:22:24;;;;;;;;;;;7.50;99.90;;;;;;8414657;28;19931;-70
2021/12/02 14:26:29;;;;;;;;;;;7.50;99.90;;;;;;8404844;28;20371;-70
2021/12/02 14:30:35;;;;;;;;;;;7.40;99.90;;;;;;8407714;28;19927;-70
2021/12/02 14:34:37;;;;;;;;;;;7.30;99.90;;;;;;8401481;28;19967;-70
2021/12/02 14:38:38;;;;;;;;;;;7.20;99.90;;;;;;8405608;28;19963;-70
2021/12/02 14:42:40;;;;;;;;;;;7.10;99.90;;;;;;8421509;28;19960;-70
2021/12/02 14:46:44;;;;;;;;;;;7.00;99.90;;;;;;8409058;28;19928;-70
2021/12/02 14:50:55;;;;;;;;;;;7.00;99.90;;;;;;8409321;28;19931;-70
2021/12/02 14:55:06;;;;;;;;;;;6.90;99.90;;;;;;8399988;28;20294;-70
2021/12/02 14:59:20;;;;;;;;;;;6.90;99.90;;;;;;8394262;28;20419;-70
2021/12/02 15:03:28;;;;;;;;;;;6.90;99.90;;;;;;8392230;28;20367;-70
2021/12/02 15:07:33;;;;;;;;;;;6.90;99.90;;;;;;8398233;28;20288;-71
2021/12/02 15:11:35;;;;;;;;;;;6.80;99.90;;;;;;8412396;28;20458;-70
2021/12/02 15:15:43;;;;;;;;;;;6.70;99.90;;;;;;8392050;28;20276;-70
2021/12/02 15:19:50;;;;;;;2.35;0.90;;;6.60;99.90;;;;;;8409337;28;19955;-70
2021/12/02 15:23:52;;;;;;;3.00;1.10;;;6.50;99.90;;;;;;8407556;28;20631;-70
2021/12/02 15:27:56;;;;;;;2.08;0.80;;;6.40;99.90;;;;;;8405928;28;20060;-70
2021/12/02 15:31:58;;;;;;;;;;;6.30;99.90;;;;;;8401921;28;20048;-70
2021/12/02 15:36:01;;;;;;;;;;;6.20;99.90;;;;;;8401442;28;19994;-70
2021/12/02 15:40:03;;;;;;;;;;;6.10;99.90;;;;;;8404102;28;19936;-70
2021/12/02 15:44:09;;;;;;;;;;;5.90;99.90;;;;;;8403869;28;20020;-70
2021/12/02 15:48:11;;;;;;;;;;;5.80;99.90;;;;;;8404148;28;19924;-70
2021/12/02 15:52:13;;;;;;;;;;;5.70;99.90;;;;;;8408002;28;19950;-70
2021/12/02 15:56:16;;;;;;;2.00;0.82;;;5.50;99.90;;;;;;8397625;28;20143;-71
2021/12/02 16:00:19;;;;;;;6.28;0.90;;;5.50;99.90;;;;;;8402359;28;20063;-71
2021/12/02 16:12:36;;;;;;;;;;;5.30;99.90;;;;;;8401842;28;20094;-71
2021/12/02 16:16:39;;;;;;;;;;;5.20;99.90;;;;;;8397819;28;20328;-71
2021/12/02 16:20:41;;;;;;;;;;;5.10;99.90;;;;;;8400326;28;19928;-71
2021/12/02 16:24:43;;;;;;;;;;;5.10;99.90;;;;;;8401912;28;20418;-71
2021/12/02 16:28:44;;;;;;;;;;;5.00;99.90;;;;;;8395429;28;19931;-72
2021/12/02 16:32:46;;;;;;;;;;;4.90;99.90;;;;;;8391426;28;19927;-71
2021/12/02 16:36:48;;;;;;;;;;;4.90;99.90;;;;;;8391813;28;20015;-71
2021/12/02 16:40:51;;;;;;;;;;;4.90;99.90;;;;;;8387928;28;20388;-71
2021/12/02 16:44:53;;;;;;;;;;;4.90;99.90;;;;;;8388008;28;20324;-71
2021/12/02 16:48:54;;;;;;;;;;;4.90;99.90;;;;;;8388536;28;20434;-71
2021/12/02 16:52:57;;;;;;;;;;;4.80;99.90;;;;;;8384772;28;19943;-71
2021/12/02 16:56:59;;;;;;;;;;;4.70;99.90;;;;;;8389751;28;20406;-71
2021/12/02 17:01:01;;;;;;;;;;;4.70;99.90;;;;;;8402928;28;19920;-71
2021/12/02 17:05:04;;;;;;;;;;;4.60;99.90;;;;;;8392212;28;20344;-71
2021/12/02 17:09:10;;;;;;;;;;;4.60;99.90;;;;;;8395167;28;19927;-71
2021/12/02 17:13:11;;;;;;;;;;;4.40;99.90;;;;;;8391425;28;19982;-71
2021/12/02 17:17:13;;;;;;;;;;;4.30;99.90;;;;;;8391037;28;20356;-72
2021/12/02 17:21:15;;;;;;;;;;;4.20;99.90;;;;;;8388006;28;20386;-71
2021/12/02 17:25:16;;;;;;;;;;;4.10;99.90;;;;;;8389717;28;19967;-71
2021/12/02 17:29:18;;;;;;;;;;;4.00;99.90;;;;;;8395368;28;19963;-71
2021/12/02 17:33:21;;;;;;;;;;;3.90;99.90;;;;;;8390526;28;20016;-71
2021/12/02 17:37:23;;;;;;;;;;;3.90;99.90;;;;;;8385619;28;19928;-72
2021/12/02 17:41:25;;;;;;;;;;;3.80;99.90;;;;;;8389790;28;19928;-71
2021/12/02 17:45:27;;;;;;;;;;;3.70;99.90;;;;;;8386104;28;19967;-70
2021/12/02 17:49:29;;;;;;;;;;;3.70;99.90;;;;;;8389870;28;19967;-71
2021/12/02 17:53:35;;;;;;;;;;;3.60;99.90;;;;;;8386317;28;19989;-71
2021/12/02 17:57:37;;;;;;;;;;;3.60;99.90;;;;;;8407910;28;19955;-70
2021/12/02 18:01:51;;;;;;;;;;;3.60;99.90;;;;;;8400387;28;20368;-70
2021/12/02 18:05:52;;;;;;;;;;;3.60;99.90;;;;;;8404318;28;19924;-70
2021/12/02 18:09:54;;;;;;;;;;;3.50;99.90;;;;;;8409091;28;20027;-70
2021/12/02 18:13:56;;;;;;;1.60;0.80;;;3.30;99.90;;;;;;8399916;28;19955;-71
2021/12/02 18:17:59;;;;;;;2.45;0.98;;;3.10;99.90;;;;;;8398086;28;20047;-71
2021/12/02 18:22:01;;;;;;;2.35;1.00;;;3.00;99.90;;;;;;8399209;28;20138;-70
2021/12/02 18:26:04;;;;;;;2.75;1.10;;;2.90;99.90;;;;;;8399570;28;20083;-71
2021/12/02 18:30:07;;;;;;;3.30;1.33;;;2.80;99.90;;;;;;8408439;28;20057;-70
2021/12/02 18:34:09;;;;;;;3.50;1.45;;;2.80;99.90;;;;;;8400213;28;20132;-71
2021/12/02 18:38:11;;;;;;;2.78;1.17;;;2.70;99.90;;;;;;8398564;28;20083;-70
2021/12/02 18:42:13;;;;;;;2.80;0.90;;;2.60;99.90;;;;;;8398489;28;20147;-70
2021/12/02 18:46:14;;;;;;;2.22;1.00;;;2.50;99.90;;;;;;8392794;28;20071;-71
2021/12/02 18:50:16;;;;;;;5.68;1.10;;;2.40;99.90;;;;;;8398049;28;20049;-70
2021/12/02 18:54:23;;;;;;;3.50;1.10;;;2.30;99.90;;;;;;8403101;28;19952;-70
2021/12/02 18:58:26;;;;;;;1.70;1.00;;;2.30;99.90;;;;;;8405220;28;20139;-71
2021/12/02 19:02:34;;;;;;;;;;;2.20;99.90;;;;;;8404350;28;19928;-70
2021/12/02 19:27:53;;;;;;;;;;;1.90;99.90;;;;;;8404837;28;20527;-70
2021/12/02 19:31:55;;;;;;;;;;;1.90;99.90;;;;;;8405650;28;19924;-70
2021/12/02 19:35:56;;;;;;;;;;;1.80;99.90;;;;;;8401569;28;19939;-70
2021/12/02 19:39:58;;;;;;;;;;;1.80;99.90;;;;;;8410345;28;20272;-70
2021/12/02 19:43:59;;;;;;;;;;;1.70;99.90;;;;;;8400596;28;20369;-70
2021/12/02 19:48:01;;;;;;;;;;;1.70;99.90;;;;;;8405505;28;19959;-70
2021/12/02 19:52:03;;;;;;;;;;;1.70;99.90;;;;;;8404489;28;19927;-70
2021/12/02 19:56:05;;;;;;;;;;;1.70;99.90;;;;;;8400403;28;19967;-70
2021/12/02 20:00:10;;;;;;;;;;;1.70;99.90;;;;;;8399137;28;19928;-70
2021/12/02 20:04:11;;;;;;;;;;;1.70;99.90;;;;;;8399111;28;20308;-70
2021/12/02 20:08:13;;;;;;;;;;;1.80;99.90;;;;;;8400696;28;19924;-70
2021/12/02 20:12:15;;;;;;;;;;;1.80;99.90;;;;;;8399057;28;20233;-70
2021/12/02 20:16:25;;;;;;;;;;;1.80;99.90;;;;;;8397860;28;19920;-71
2021/12/02 20:20:27;;;;;;;;;;;1.70;99.90;;;;;;8398543;28;19935;-70
2021/12/02 20:24:29;;;;;;;;;;;1.70;99.90;;;;;;8402920;28;19978;-70
2021/12/02 20:28:31;;;;;;;;;;;1.70;99.90;;;;;;8404524;28;19920;-70
2021/12/02 20:32:33;;;;;;;;;;;1.70;99.90;;;;;;8403577;28;20030;-70
2021/12/02 20:36:37;;;;;;;;;;;1.60;99.90;;;;;;8404710;28;19959;-70
2021/12/02 20:40:38;;;;;;;;;;;1.60;99.90;;;;;;8403568;28;20014;-70
2021/12/02 20:44:45;;;;;;;;;;;1.60;99.90;;;;;;8397264;28;19964;-70
2021/12/02 20:48:55;;;;;;;;;;;1.60;99.90;;;;;;8405140;28;19967;-70
2021/12/02 20:52:57;;;;;;;;;;;1.50;99.90;;;;;;8417372;28;19924;-70
2021/12/02 20:56:59;;;;;;;;;;;1.40;99.90;;;;;;8404388;28;19982;-71
2021/12/02 21:01:01;;;;;;;;;;;1.40;99.90;;;;;;8405376;28;19920;-71
2021/12/02 21:05:03;;;;;;;;;;;1.40;99.90;;;;;;8399815;28;20046;-70
2021/12/02 21:09:05;;;;;;;;;;;1.40;99.90;;;;;;8405270;28;19947;-70
2021/12/02 21:13:09;;;;;;;;;;;1.40;99.90;;;;;;8405644;28;20043;-70
2021/12/02 21:17:12;;;;;;;;;;;1.40;99.90;;;;;;8402267;28;19959;-70
2021/12/02 21:21:14;;;;;;;;;;;1.30;99.90;;;;;;8408483;28;19924;-70
2021/12/02 21:25:19;;;;;;;;;;;1.30;99.90;;;;;;8407650;28;20386;-70
2021/12/02 21:29:21;;;;;;;;;;;1.20;99.90;;;;;;8404900;28;20023;-71
2021/12/02 21:33:23;;;;;;;;;;;1.20;99.90;;;;;;8408308;28;20390;-70
2021/12/02 21:37:30;;;;;;;;;;;1.10;99.90;;;;;;8407044;28;20018;-70
2021/12/02 21:41:33;;;;;;;;;;;1.00;99.90;;;;;;8408782;28;20003;-70
2021/12/02 21:45:36;;;;;;;;;;;1.00;99.90;;;;;;8411325;28;19935;-70
2021/12/02 21:49:38;;;;;;;;;;;1.00;99.90;;;;;;8406909;28;19973;-70
2021/12/02 21:53:40;;;;;;;;;;;1.00;99.90;;;;;;8410291;28;19934;-70
2021/12/02 21:57:42;;;;;;;;;;;0.90;99.90;;;;;;8413337;28;19967;-70
2021/12/02 22:01:46;;;;;;;;;;;0.90;99.90;;;;;;8414937;28;19982;-70
2021/12/02 22:05:47;;;;;;;;;;;0.90;99.90;;;;;;8427053;28;19942;-70
2021/12/02 22:09:49;;;;;;;;;;;0.90;99.90;;;;;;8430593;28;20363;-70
2021/12/02 22:13:51;;;;;;;;;;;0.90;99.90;;;;;;8435234;28;19935;-70
2021/12/02 22:17:53;;;;;;;;;;;0.90;99.90;;;;;;8429267;28;20354;-70
2021/12/02 22:21:55;;;;;;;;;;;0.80;99.90;;;;;;8430775;28;19932;-70
2021/12/02 22:25:56;;;;;;;;;;;0.80;99.90;;;;;;8433003;28;19963;-70
2021/12/02 22:29:58;;;;;;;;;;;0.70;99.90;;;;;;8434374;28;19928;-70
2021/12/02 22:34:01;;;;;;;;;;;0.70;99.90;;;;;;8433071;28;20659;-70
2021/12/02 22:38:03;;;;;;;;;;;0.70;99.90;;;;;;8437490;28;20374;-70
2021/12/02 22:42:04;;;;;;;;;;;0.70;99.90;;;;;;8434455;28;20483;-71
2021/12/02 22:46:06;;;;;;;;;;;0.70;99.90;;;;;;8418947;28;20288;-70
2021/12/02 22:50:08;;;;;;;;;;;0.70;99.90;;;;;;8433978;28;19928;-70
2021/12/02 22:54:10;;;;;;;;;;;0.70;99.90;;;;;;8438980;28;19920;-71
2021/12/02 22:58:13;;;;;;;;;;;0.80;99.90;;;;;;8431383;28;19927;-71
2021/12/02 23:02:15;;;;;;;;;;;0.90;99.90;;;;;;8438153;28;19938;-70
2021/12/02 23:06:17;;;;;;;;;;;0.90;99.90;;;;;;8430046;28;19959;-70
2021/12/02 23:10:19;;;;;;;;;;;1.00;99.90;;;;;;8429160;28;19927;-70
2021/12/02 23:14:23;;;;;;;;;;;1.00;99.90;;;;;;8431844;28;19924;-70
2021/12/02 23:18:26;;;;;;;;;;;1.10;99.90;;;;;;8429208;28;19931;-70
2021/12/02 23:22:30;;;;;;;;;;;1.10;99.90;;;;;;8427728;28;20260;-70
2021/12/02 23:26:31;;;;;;;;;;;1.10;99.90;;;;;;8431948;28;19927;-70
2021/12/02 23:30:35;;;;;;;;;;;1.20;99.90;;;;;;8430442;28;19931;-70
2021/12/02 23:34:37;;;;;;;;;;;1.20;99.90;;;;;;8428930;28;19958;-70
2021/12/02 23:38:40;;;;;;;;;;;1.20;99.90;;;;;;8428401;28;20018;-70
2021/12/02 23:42:41;;;;;;;;;;;1.30;99.90;;;;;;8438023;27;19943;-70
2021/12/02 23:46:43;;;;;;;;;;;1.30;99.90;;;;;;8461829;27;20375;-70
2021/12/02 23:50:45;;;;;;;;;;;1.30;99.90;;;;;;8422267;28;20410;-70
2021/12/02 23:54:47;;;;;;;;;;;1.30;99.90;;;;;;8428225;28;20340;-70
2021/12/02 23:58:48;;;;;;;;;;;1.40;99.90;;;;;;8422114;28;19923;-70
